Weather observations for the past three days for
Alice, Alice International Airport
Metric (Imperial)
Date Time (cdt) Wind (kph) Vis. (km) Weather Sky Cond. Temperature (ºC) Relative Humidity Wind Chill (°C) Heat Index (°C) Pressure Precipitation (cm)
Air Dwpt 6 hour altimeter (cm) sea level (mb) 1 hr 3 hr 6 hr
Max. Min.
01 13:53 S 11 16.09 Fair CLR 37.2 17.2 31% 38 76.02 1013.0
01 12:53 SE 13 14.48 Fair CLR 36.7 19.4 36.7 23.3 36% 39 76.07 1013.9
01 11:53 Vrbl 7 16.09 Fair CLR 34.4 19.4 41% 36 76.15 1014.8
01 10:53 S 15 16.09 Fair CLR 32.2 22.2 56% 36 76.15 1014.8
01 09:53 S 15 16.09 Fair CLR 30.6 23.3 65% 35 76.15 1014.9
01 08:53 S 9 16.09 Fair CLR 27.8 24.4 82% 32 76.17 1015.1
01 07:53 Calm 6.44 Fog/Mist CLR 23.9 23.3 96% 23 76.12 1014.5
01 06:53 S 7 8.05 Fog/Mist CLR 23.3 23.3 27.2 23.3 100% 76.07 1013.9
01 05:53 SE 7 9.66 Fog/Mist CLR 23.9 23.9 100% 22 76.07 1013.8
01 04:53 SE 6 12.87 Fair CLR 24.4 23.9 97% 24 76.07 1013.9
01 03:53 SE 6 12.87 Fair CLR 23.9 23.9 100% 22 76.1 1014.0
01 02:53 SE 6 16.09 A Few Clouds FEW020 25.6 24.4 93% 27 76.1 1014.1
01 01:53 SE 7 16.09 Fair CLR 26.1 24.4 90% 28 76.12 1014.3
01 00:53 S 11 16.09 Fair CLR 27.2 25 33.9 27.2 88% 31 76.12 1014.4
31 23:53 S 11 16.09 Fair CLR 27.8 24.4 82% 32 76.12 1014.3
31 22:53 SE 11 16.09 Mostly Cloudy BKN023 28.3 24.4 79% 33 76.12 1014.5
31 21:53 SE 17 16.09 Fair CLR 28.9 23.9 74% 33 76.07 1013.9
31 20:53 SE 20 16.09 Fair CLR 29.4 22.8 68% 33 76.02 1013.1
31 19:53 SE 20 G 44 16.09 Fair CLR 31.1 21.7 57% 34 75.95 1012.2
31 18:53 SE 26 G 41 16.09 Fair CLR 33.9 19.4 38.9 33.9 42% 36 75.92 1011.8
31 17:53 SE 31 G 52 16.09 Fair CLR 35.6 18.9 37% 38 75.9 1011.4
31 16:53 SE 22 16.09 Fair CLR 37.2 20 37% 40 75.9 1011.3
31 15:53 SE 24 G 35 16.09 Partly Cloudy SCT070 38.3 20.6 36% 42 75.92 1011.7
31 14:53 SE 17 G 31 16.09 Partly Cloudy SCT070 38.3 20 34% 42 75.97 1012.6
31 13:53 E 17 G 31 16.09 A Few Clouds FEW070 37.2 20 37% 40 76.05 1013.4
31 12:53 S 20 G 30 16.09 A Few Clouds FEW060 36.7 20 37.2 24.4 38% 40 76.1 1014.1
31 11:53 SE 17 16.09 Fair CLR 35 21.1 44% 39 76.15 1014.7
31 10:53 S 17 16.09 Fair CLR 33.3 22.2 52% 38 76.15 1014.9
31 09:53 S 17 16.09 Fair CLR 31.1 23.9 66% 37 76.15 1014.8
31 08:53 S 17 16.09 Fair CLR 28.9 25 80% 34 76.12 1014.5
31 07:53 SE 11 14.48 Fair CLR 25.6 24.4 93% 27 76.07 1013.9
31 06:53 S 9 14.48 Fair CLR 25 23.9 27.2 25 94% 26 76.05 1013.6
31 05:53 SE 7 16.09 Fair CLR 25.6 23.9 90% 27 76.05 1013.5
31 04:53 SE 9 16.09 Fair CLR 26.1 24.4 90% 28 76.05 1013.5
31 03:53 SE 7 16.09 Mostly Cloudy BKN020 26.7 24.4 87% 30 76.07 1013.8
31 02:53 SE 9 16.09 Mostly Cloudy SCT020 BKN028 27.2 25 88% 31 76.07 1014.0
31 01:53 SE 9 16.09 Partly Cloudy SCT023 27.2 24.4 85% 31 76.1 1014.2
31 00:53 SE 9 16.09 Fair CLR 27.2 24.4 33.3 27.2 85% 31 76.1 1014.3
30 23:53 SE 11 16.09 Fair CLR 27.8 23.9 79% 32 76.1 1014.2
30 22:53 SE 15 16.09 Fair CLR 28.3 23.9 77% 32 76.07 1013.9
30 21:53 SE 17 16.09 Fair CLR 28.9 24.4 77% 34 76.05 1013.6
30 20:53 SE 20 16.09 Fair CLR 29.4 23.9 72% 34 76 1012.8
30 19:53 SE 22 G 37 16.09 Fair CLR 31.1 22.2 59% 35 75.95 1012.1
30 18:53 SE 28 G 39 16.09 Fair CLR 33.3 21.1 37.8 33.3 49% 37 75.9 1011.6
30 17:53 SE 30 G 41 16.09 Fair CLR 35.6 20 40% 38 75.87 1011.3
30 16:53 SE 22 G 44 16.09 Fair CLR 37.2 20 37% 40 75.87 1011.0
30 15:53 SE 19 16.09 A Few Clouds FEW065 FEW080 36.7 20.6 39% 40 75.92 1011.8
30 14:53 E 19 G 30 16.09 A Few Clouds FEW070 36.1 20.6 40% 39 76 1012.7
30 13:53 SE 17 16.09 Mostly Cloudy BKN060 36.7 20 38% 40 76.05 1013.6
30 12:53 SE 13 16.09 A Few Clouds FEW060 36.1 21.1 36.1 23.3 42% 40 76.12 1014.5
30 11:53 S 13 G 28 16.09 Partly Cloudy SCT046 34.4 21.7 48% 38 76.2 1015.5
30 10:53 S 19 16.09 Fair CLR 32.8 22.2 54% 37 76.2 1015.7
30 09:53 S 19 16.09 A Few Clouds FEW020 31.1 24.4 68% 37 76.2 1015.6
30 08:53 S 15 16.09 Fair CLR 28.9 25 80% 34 76.17 1015.3
30 07:53 SE 6 14.48 Fair CLR 24.4 23.3 94% 24 76.15 1015.0
30 06:53 Calm 16.09 Fair CLR 23.9 23.3 25.6 23.9 96% 23 76.12 1014.6
30 05:53 SE 7 16.09 Fair CLR 24.4 23.3 94% 24 76.12 1014.5
30 04:53 SE 7 16.09 Fair CLR 24.4 23.3 94% 24 76.12 1014.4
30 03:53 SE 6 16.09 Fair CLR 24.4 23.9 97% 24 76.12 1014.6
30 02:53 SE 7 16.09 Fair CLR 25 23.9 94% 26 76.15 1014.9
30 01:53 S 9 16.09 Fair CLR 25.6 23.9 90% 27 76.17 1015.1
30 00:53 SE 9 16.09 Fair CLR 25.6 23.3 32.2 25 87% 27 76.17 1015.4
29 23:53 SE 7 16.09 Fair CLR 26.1 23.3 85% 28 76.2 1015.5
29 22:53 SE 13 16.09 Fair CLR 27.2 23.9 82% 30 76.17 1015.4
29 21:53 SE 15 16.09 Fair CLR 27.8 23.3 77% 31 76.15 1015.0
29 20:53 SE 15 16.09 Fair CLR 28.9 22.2 67% 32 76.1 1014.2
29 19:53 SE 22 16.09 Fair CLR 30.6 21.1 57% 33 76.05 1013.4
29 18:53 SE 20 16.09 Fair CLR 32.2 21.1 37.2 32.2 52% 35 76.02 1013.3
29 17:53 SE 28 G 37 16.09 Fair CLR 34.4 20 43% 37 76 1013.0
29 16:53 SE 26 G 41 16.09 Fair CLR 36.1 21.1 42% 40 76.02 1013.4
29 15:53 SE 22 G 33 16.09 Light Rain FEW055 35 21.1 44% 39 76.07 1013.8
29 14:53 E 24 G 41 16.09 Light Rain FEW060 33.3 22.8 54% 38 76.12 1014.5
Date Time (cdt) Wind (kph) Vis. (km) Weather Sky Cond. Air Dwpt Max. Min. Relative Humidity Wind Chill (°C) Heat Index (°C) altimeter (cm) sea level (mb) 1 hr 3 hr 6 hr
6 hour
Temperature (ºC) Pressure Precipitation (cm)